Time;durP1;ratioP1;P1;durP2;ratioP2;P2;SDS_P1;SDS_P2;PMS_P1;PMS_P2;Temp;Humidity;BMP_temperature;BMP_pressure;BME280_temperature;BME280_humidity;BME280_pressure;Samples;Min_cycle;Max_cycle;Signal;HPM_P1;HPM_P2
2022/10/26 00:02:07;;;;;;;10.07;4.53;;;;;;;13.84;59.79;95266.84;5066267;28;20040;-69
2022/10/26 00:04:32;;;;;;;7.35;3.97;;;;;;;13.84;60.08;95269.44;5033583;28;20037;-70
2022/10/26 00:06:58;;;;;;;12.45;5.18;;;;;;;13.65;60.16;95256.41;5058013;28;20035;-69
2022/10/26 00:09:23;;;;;;;7.65;4.10;;;;;;;13.65;60.79;95261.63;5046084;28;20102;-69
2022/10/26 00:11:49;;;;;;;7.68;4.10;;;;;;;13.55;60.58;95261.56;5053077;28;20559;-69
2022/10/26 00:14:14;;;;;;;10.23;3.90;;;;;;;13.56;60.76;95260.59;5066002;28;20028;-69
2022/10/26 00:16:40;;;;;;;9.07;4.18;;;;;;;13.51;61.07;95267.19;5044103;28;20044;-69
2022/10/26 00:19:05;;;;;;;9.38;4.82;;;;;;;13.54;60.96;95259.94;5050396;28;20025;-69
2022/10/26 00:21:31;;;;;;;10.18;4.28;;;;;;;13.50;61.10;95258.53;5051767;28;20450;-69
2022/10/26 00:23:58;;;;;;;8.95;4.13;;;;;;;13.57;61.18;95256.25;5033587;28;20033;-69
2022/10/26 00:26:24;;;;;;;7.30;4.30;;;;;;;13.59;60.71;95259.53;5050221;28;20090;-69
2022/10/26 00:28:52;;;;;;;7.53;3.88;;;;;;;13.61;60.88;95262.81;5051805;28;20037;-69
2022/10/26 00:31:18;;;;;;;9.32;4.50;;;;;;;13.53;60.97;95273.09;5061351;28;20027;-69
2022/10/26 00:33:43;;;;;;;8.48;3.97;;;;;;;13.34;61.40;95264.25;5050036;28;20025;-69
2022/10/26 00:36:09;;;;;;;8.57;4.45;;;;;;;13.34;61.06;95258.22;5051545;28;20021;-70
2022/10/26 00:38:35;;;;;;;6.82;4.00;;;;;;;13.27;61.77;95273.59;5031854;28;20502;-69
2022/10/26 00:41:00;;;;;;;8.90;4.20;;;;;;;13.02;62.21;95253.16;5048847;28;20082;-69
2022/10/26 00:43:25;;;;;;;8.82;4.20;;;;;;;13.03;61.86;95267.84;5050247;28;20102;-69
2022/10/26 00:45:51;;;;;;;9.80;3.67;;;;;;;13.02;62.15;95266.19;5069717;28;20020;-69
2022/10/26 00:48:19;;;;;;;7.68;4.30;;;;;;;12.91;62.52;95265.31;5039929;28;20034;-69
2022/10/26 00:50:45;;;;;;;6.20;3.97;;;;;;;12.90;62.52;95261.06;5051241;28;20126;-69
2022/10/26 00:53:10;;;;;;;9.55;3.88;;;;;;;12.91;62.96;95267.91;5033414;28;20261;-69
2022/10/26 00:55:41;;;;;;;14.65;4.32;;;;;;;12.77;63.30;95249.19;5034429;28;20486;-69
2022/10/26 00:58:07;;;;;;;8.52;4.38;;;;;;;12.69;63.26;95253.25;5042146;28;20125;-69
2022/10/26 01:00:32;;;;;;;8.13;4.18;;;;;;;12.74;63.09;95263.31;5044262;28;20058;-70
2022/10/26 01:03:00;;;;;;;6.93;3.92;;;;;;;12.74;63.34;95247.69;5055176;28;20063;-69
2022/10/26 01:05:25;;;;;;;8.88;4.25;;;;;;;12.90;62.68;95266.28;5032558;28;20032;-69
2022/10/26 01:07:51;;;;;;;6.05;3.70;;;;;;;12.52;63.42;95246.88;5053471;28;20426;-69
2022/10/26 01:10:17;;;;;;;9.40;3.83;;;;;;;12.61;62.73;95260.09;5069175;28;21494;-69
2022/10/26 01:12:43;;;;;;;7.13;4.32;;;;;;;12.52;63.09;95257.28;5053868;28;20033;-69
2022/10/26 01:15:08;;;;;;;7.18;3.75;;;;;;;12.57;63.44;95256.91;5069137;28;20081;-69
2022/10/26 01:18:04;;;;;;;7.25;4.28;;;;;;;12.71;63.17;95260.97;5050686;28;20097;-69
2022/10/26 01:20:32;;;;;;;10.75;3.92;;;;;;;12.41;63.78;95265.19;5059825;28;20032;-69
2022/10/26 01:23:00;;;;;;;6.22;3.30;;;;;;;12.00;64.85;95260.75;5070143;28;20504;-68
2022/10/26 01:25:53;;;;;;;6.60;3.78;;;;;;;12.28;63.83;95262.75;5069640;28;20028;-69
2022/10/26 01:28:27;;;;;;;6.85;3.60;;;;;;;12.09;63.94;95247.00;5069483;28;20064;-69
2022/10/26 01:30:52;;;;;;;6.82;3.60;;;;;;;12.03;64.19;95255.28;5069578;28;20027;-69
2022/10/26 01:33:38;;;;;;;11.50;3.60;;;;;;;12.12;64.01;95270.19;5067440;28;20033;-69
2022/10/26 01:36:07;;;;;;;9.35;3.60;;;;;;;12.06;64.83;95271.50;5073069;28;20036;-69
2022/10/26 01:38:51;;;;;;;6.65;3.53;;;;;;;11.99;65.37;95264.31;5051146;28;20033;-69
2022/10/26 01:41:37;;;;;;;6.28;3.65;;;;;;;11.80;65.09;95234.53;5049690;28;20029;-69
2022/10/26 01:44:06;;;;;;;5.93;3.40;;;;;;;12.08;64.92;95259.19;5063472;28;20017;-69
2022/10/26 01:46:38;;;;;;;6.13;3.53;;;;;;;12.08;65.24;95251.38;5020458;28;20040;-69
2022/10/26 01:49:06;;;;;;;8.70;3.85;;;;;;;12.12;65.17;95253.72;5052763;28;20036;-69
2022/10/26 01:51:32;;;;;;;5.95;3.28;;;;;;;12.15;65.09;95249.09;5056333;28;20036;-69
2022/10/26 01:53:57;;;;;;;8.43;3.45;;;;;;;12.04;64.94;95246.56;5055244;28;20505;-69
2022/10/26 01:56:25;;;;;;;8.27;3.90;;;;;;;11.77;65.10;95257.38;5053125;28;20061;-69
2022/10/26 01:59:09;;;;;;;8.73;3.78;;;;;;;11.59;65.38;95250.13;5037689;28;20044;-69
2022/10/26 02:01:47;;;;;;;6.25;3.80;;;;;;;11.70;65.76;95244.06;5041890;28;20410;-69
2022/10/26 02:04:21;;;;;;;5.35;3.42;;;;;;;11.76;65.29;95246.16;5072782;28;20098;-69
2022/10/26 02:07:09;;;;;;;5.90;3.65;;;;;;;11.68;65.20;95243.34;5073381;28;20137;-69
2022/10/26 02:10:14;;;;;;;9.10;3.60;;;;;;;11.84;64.90;95254.16;5050071;28;20045;-69
2022/10/26 02:12:50;;;;;;;11.10;5.68;;;;;;;11.62;65.31;95249.88;5048234;28;20127;-69
2022/10/26 02:15:44;;;;;;;10.40;5.40;;;;;;;11.60;65.28;95253.53;5054414;28;20025;-69
2022/10/26 02:18:18;;;;;;;10.85;5.13;;;;;;;11.70;65.24;95256.22;5068408;28;20036;-69
2022/10/26 02:20:47;;;;;;;9.57;4.80;;;;;;;11.67;64.86;95265.09;5062427;28;20093;-69
2022/10/26 02:23:12;;;;;;;10.82;4.63;;;;;;;11.52;66.00;95264.53;5039199;28;20131;-69
2022/10/26 02:25:45;;;;;;;15.68;4.68;;;;;;;11.59;65.54;95267.50;5055788;28;20041;-69
2022/10/26 02:28:12;;;;;;;10.57;4.57;;;;;;;11.46;65.44;95272.84;5071708;28;20362;-69
2022/10/26 02:30:38;;;;;;;6.63;4.35;;;;;;;11.51;64.97;95272.50;5036102;28;20036;-69
2022/10/26 02:33:04;;;;;;;6.72;3.85;;;;;;;11.33;65.26;95256.53;5051869;28;20036;-69
2022/10/26 02:35:30;;;;;;;13.13;5.20;;;;;;;11.31;65.67;95261.03;5055639;28;20480;-69
2022/10/26 02:37:57;;;;;;;12.38;4.78;;;;;;;11.35;65.13;95265.88;5035813;28;20086;-68
2022/10/26 02:40:24;;;;;;;9.50;4.15;;;;;;;11.15;65.76;95275.25;5073500;28;20444;-68
2022/10/26 02:42:50;;;;;;;8.02;4.25;;;;;;;11.05;65.92;95263.06;5059828;28;20048;-68
2022/10/26 02:45:17;;;;;;;9.52;4.10;;;;;;;11.14;65.31;95277.94;5051904;28;20487;-68
2022/10/26 02:47:43;;;;;;;11.90;5.43;;;;;;;10.83;66.32;95253.50;5050710;28;20037;-69
2022/10/26 02:50:08;;;;;;;9.63;5.20;;;;;;;10.69;67.31;95260.56;5069470;28;20078;-68
2022/10/26 02:52:55;;;;;;;11.93;5.85;;;;;;;10.82;67.26;95283.88;5045451;28;20029;-69
2022/10/26 02:55:28;;;;;;;8.82;4.60;;;;;;;10.85;67.37;95269.81;5051939;28;20082;-69
2022/10/26 02:57:56;;;;;;;10.52;4.55;;;;;;;10.92;67.04;95273.56;5049626;28;20029;-68
2022/10/26 03:00:21;;;;;;;8.55;4.35;;;;;;;10.58;67.34;95263.16;5036653;28;20039;-69
2022/10/26 03:02:51;;;;;;;8.43;4.95;;;;;;;10.64;66.96;95275.72;5063217;28;20029;-68
2022/10/26 03:05:23;;;;;;;10.55;4.60;;;;;;;10.45;67.48;95275.44;5040161;28;20036;-69
2022/10/26 03:07:48;;;;;;;8.38;4.47;;;;;;;10.56;67.46;95279.81;5053873;28;20071;-69
2022/10/26 03:10:14;;;;;;;9.98;4.97;;;;;;;10.69;66.96;95285.72;5058417;28;20057;-69
2022/10/26 03:12:39;;;;;;;8.18;4.53;;;;;;;10.48;67.61;95281.22;5052386;28;20059;-68
2022/10/26 03:15:05;;;;;;;8.25;4.40;;;;;;;10.43;67.29;95283.34;5069018;28;20017;-69
2022/10/26 03:17:31;;;;;;;9.23;4.10;;;;;;;10.47;67.43;95291.72;5061263;28;20037;-69
2022/10/26 03:19:56;;;;;;;7.70;3.95;;;;;;;10.45;67.90;95291.03;5034993;28;20033;-69
2022/10/26 03:22:22;;;;;;;8.52;3.90;;;;;;;10.39;68.33;95283.66;5063537;28;20043;-69
2022/10/26 03:24:47;;;;;;;9.75;3.88;;;;;;;10.26;68.12;95291.53;5067818;28;20419;-69
2022/10/26 03:27:13;;;;;;;6.50;4.35;;;;;;;10.15;68.24;95287.13;5057957;28;20041;-69
2022/10/26 03:29:38;;;;;;;9.15;4.72;;;;;;;10.25;69.13;95301.09;5069600;28;20039;-70
2022/10/26 03:32:04;;;;;;;7.00;3.85;;;;;;;10.24;69.05;95298.59;5069367;28;20041;-69
2022/10/26 03:34:30;;;;;;;6.90;3.60;;;;;;;10.39;68.41;95305.28;5056449;28;20468;-70
2022/10/26 03:36:55;;;;;;;7.15;3.72;;;;;;;10.27;68.57;95303.59;5063109;28;20041;-69
2022/10/26 03:39:21;;;;;;;8.80;3.70;;;;;;;10.06;69.71;95305.97;5061819;28;20032;-69
2022/10/26 03:41:46;;;;;;;6.60;3.75;;;;;;;10.13;69.95;95307.16;5058186;28;20094;-69
2022/10/26 03:44:12;;;;;;;10.30;3.58;;;;;;;10.07;69.92;95312.81;5071735;28;20039;-69
2022/10/26 03:46:38;;;;;;;10.90;3.70;;;;;;;9.93;70.90;95307.81;5045066;28;20442;-69
2022/10/26 03:49:03;;;;;;;6.85;3.88;;;;;;;10.06;70.24;95303.38;5070091;28;20039;-69
2022/10/26 03:51:29;;;;;;;7.45;3.83;;;;;;;10.16;70.08;95309.53;5054111;28;20043;-69
2022/10/26 03:53:54;;;;;;;7.18;4.00;;;;;;;10.21;70.23;95297.06;5051629;28;20489;-69
2022/10/26 03:56:19;;;;;;;7.50;4.55;;;;;;;10.29;70.42;95301.72;5062302;28;20438;-69
2022/10/26 03:58:45;;;;;;;6.65;4.03;;;;;;;10.43;70.20;95309.31;5057853;28;20095;-69
2022/10/26 04:01:10;;;;;;;5.88;3.90;;;;;;;10.23;70.62;95310.75;5068078;28;20020;-70
2022/10/26 04:03:36;;;;;;;5.78;3.78;;;;;;;10.28;70.28;95308.69;5065789;28;20029;-69
2022/10/26 04:06:02;;;;;;;9.38;4.15;;;;;;;10.29;70.12;95307.72;5051369;28;20490;-69
2022/10/26 04:08:27;;;;;;;8.82;4.50;;;;;;;10.27;69.94;95303.59;5053797;28;20438;-70
2022/10/26 04:10:53;;;;;;;8.48;4.20;;;;;;;10.34;70.24;95314.38;5068981;28;20040;-69
2022/10/26 04:13:18;;;;;;;9.02;4.13;;;;;;;10.28;70.04;95319.06;5051123;28;20411;-70
2022/10/26 04:15:43;;;;;;;8.00;4.05;;;;;;;10.31;69.98;95324.97;5070073;28;20028;-69
2022/10/26 04:18:13;;;;;;;9.45;4.20;;;;;;;10.20;70.10;95318.78;5063877;28;20068;-70
2022/10/26 04:20:40;;;;;;;8.57;4.65;;;;;;;10.25;70.51;95313.22;5054908;28;20133;-70
2022/10/26 04:23:06;;;;;;;7.43;4.40;;;;;;;10.27;70.24;95317.41;5044142;28;20483;-69
2022/10/26 04:25:32;;;;;;;7.28;4.05;;;;;;;10.23;70.67;95313.34;5062939;28;20047;-70
2022/10/26 04:27:57;;;;;;;8.65;4.25;;;;;;;10.15;70.58;95320.06;5050544;28;20055;-69
2022/10/26 04:30:23;;;;;;;8.43;4.82;;;;;;;10.01;70.87;95314.09;5066367;28;20341;-70
2022/10/26 04:32:48;;;;;;;6.13;4.28;;;;;;;10.13;70.83;95307.16;5037325;28;20116;-69
2022/10/26 04:35:14;;;;;;;9.68;4.50;;;;;;;10.05;70.71;95320.69;5071462;28;20032;-70
2022/10/26 04:37:39;;;;;;;6.45;3.92;;;;;;;10.06;70.63;95321.56;5038137;28;20467;-69
2022/10/26 04:40:05;;;;;;;7.80;4.00;;;;;;;10.17;70.77;95313.81;5050451;28;20090;-70
2022/10/26 04:42:32;;;;;;;4.90;3.70;;;;;;;10.14;70.96;95320.97;5051030;28;20032;-69
2022/10/26 04:44:59;;;;;;;7.03;3.75;;;;;;;10.04;71.47;95318.22;5045864;28;20029;-69
2022/10/26 04:47:24;;;;;;;6.57;4.05;;;;;;;10.16;70.67;95317.31;5070214;28;20432;-69
2022/10/26 04:49:50;;;;;;;7.60;4.47;;;;;;;10.09;70.81;95318.72;5057340;28;20104;-69
2022/10/26 04:52:15;;;;;;;6.72;4.20;;;;;;;10.13;70.74;95321.91;5050557;28;20044;-70
2022/10/26 04:54:41;;;;;;;8.90;4.95;;;;;;;9.97;70.76;95320.44;5052929;28;20414;-70
2022/10/26 04:57:06;;;;;;;7.82;4.32;;;;;;;10.11;70.66;95329.81;5059126;28;20041;-70
2022/10/26 04:59:32;;;;;;;11.30;4.25;;;;;;;9.99;70.98;95333.31;5071102;28;20025;-69
2022/10/26 05:01:57;;;;;;;9.20;4.43;;;;;;;9.92;71.50;95330.34;5061939;28;20142;-70
2022/10/26 05:04:22;;;;;;;9.45;4.43;;;;;;;9.91;71.65;95333.84;5058165;28;20028;-69
2022/10/26 05:06:48;;;;;;;10.27;4.22;;;;;;;9.92;71.62;95335.53;5049606;28;20044;-69
2022/10/26 05:09:14;;;;;;;6.10;3.67;;;;;;;10.02;71.04;95343.47;5060515;28;20502;-70
2022/10/26 05:11:39;;;;;;;8.38;4.30;;;;;;;9.99;71.13;95349.69;5049880;28;20379;-70
2022/10/26 05:14:05;;;;;;;6.95;4.15;;;;;;;9.97;71.09;95348.16;5043279;28;20021;-70
2022/10/26 05:16:30;;;;;;;7.35;4.70;;;;;;;9.91;71.39;95333.03;5037898;28;20033;-70
2022/10/26 05:18:55;;;;;;;8.43;4.35;;;;;;;9.96;71.38;95325.75;5053852;28;20509;-70
2022/10/26 05:21:21;;;;;;;8.10;4.45;;;;;;;10.17;71.58;95339.78;5060095;28;20047;-70
2022/10/26 05:23:52;;;;;;;6.88;4.28;;;;;;;10.17;71.12;95334.56;5061565;28;20037;-70
2022/10/26 05:26:18;;;;;;;8.55;4.35;;;;;;;10.17;71.49;95344.97;5061531;28;20033;-70
2022/10/26 05:28:43;;;;;;;8.65;4.07;;;;;;;10.22;71.78;95340.28;5051284;28;20044;-69
2022/10/26 05:31:09;;;;;;;6.60;3.80;;;;;;;10.30;71.81;95350.09;5070027;28;20032;-70
2022/10/26 05:33:34;;;;;;;11.50;4.95;;;;;;;10.34;70.95;95355.91;5067316;28;20036;-69
2022/10/26 05:36:00;;;;;;;8.43;4.43;;;;;;;10.33;70.70;95359.44;5068621;28;20406;-70
2022/10/26 05:38:25;;;;;;;8.07;4.78;;;;;;;10.32;70.53;95370.78;5050411;28;20028;-69
2022/10/26 05:40:52;;;;;;;14.70;5.93;;;;;;;10.25;70.61;95363.41;5067495;28;20406;-70
2022/10/26 05:43:18;;;;;;;12.98;5.63;;;;;;;10.24;70.63;95369.53;5067517;28;20025;-69
2022/10/26 05:45:43;;;;;;;6.55;4.45;;;;;;;10.13;70.75;95364.28;5051158;28;20426;-70
2022/10/26 05:48:09;;;;;;;11.95;5.00;;;;;;;10.21;70.76;95379.31;5070713;28;20029;-70
2022/10/26 05:50:34;;;;;;;9.55;4.40;;;;;;;10.26;70.70;95382.41;5052805;28;20039;-70
2022/10/26 05:53:00;;;;;;;7.93;4.25;;;;;;;10.27;70.80;95384.09;5070476;28;20078;-69
2022/10/26 05:55:26;;;;;;;9.40;4.30;;;;;;;10.30;71.14;95391.66;5069379;28;20039;-70
2022/10/26 05:57:51;;;;;;;10.35;4.95;;;;;;;10.26;70.83;95390.19;5069362;28;20478;-70
2022/10/26 06:00:19;;;;;;;12.82;5.35;;;;;;;10.24;71.15;95397.25;5070791;28;20103;-71
2022/10/26 06:02:56;;;;;;;9.38;4.43;;;;;;;10.20;71.19;95394.06;5069256;28;20497;-70
2022/10/26 06:05:24;;;;;;;10.98;4.90;;;;;;;10.20;70.92;95386.28;5070476;28;20032;-70
2022/10/26 06:07:49;;;;;;;7.70;4.85;;;;;;;10.23;71.16;95391.25;5070469;28;20475;-70
2022/10/26 06:10:15;;;;;;;9.98;4.30;;;;;;;10.31;71.21;95406.31;5069181;28;20040;-70
2022/10/26 06:12:41;;;;;;;7.65;5.00;;;;;;;10.34;70.81;95397.47;5070689;28;20032;-70
2022/10/26 06:15:08;;;;;;;9.35;4.32;;;;;;;10.40;71.56;95402.22;5052337;28;20032;-71
2022/10/26 06:18:03;;;;;;;15.10;4.32;;;;;;;10.69;70.70;95406.09;5052596;28;20040;-70
2022/10/26 06:20:50;;;;;;;8.57;4.68;;;;;;;10.60;70.88;95404.16;5069055;28;20039;-70
2022/10/26 06:23:30;;;;;;;9.88;4.55;;;;;;;10.51;71.61;95410.06;5069125;28;20036;-70
2022/10/26 06:26:08;;;;;;;6.50;4.03;;;;;;;10.55;71.80;95406.28;5070243;28;20044;-70
2022/10/26 06:28:43;;;;;;;8.60;4.35;;;;;;;10.62;71.56;95409.28;5070403;28;20093;-70
2022/10/26 06:31:08;;;;;;;9.85;4.18;;;;;;;10.88;71.34;95412.53;5070214;28;20033;-70
2022/10/26 06:33:33;;;;;;;9.07;3.75;;;;;;;11.28;69.86;95402.56;5052477;28;20464;-70
2022/10/26 06:36:12;;;;;;;8.57;4.40;;;;;;;11.69;69.08;95408.13;5071402;28;20031;-70
2022/10/26 06:38:37;;;;;;;11.27;6.43;;;;;;;12.25;67.96;95410.66;5072341;28;20036;-70
2022/10/26 06:41:03;;;;;;;7.90;4.82;;;;;;;12.93;65.54;95412.03;5056126;28;20105;-70
2022/10/26 06:43:30;;;;;;;9.60;4.90;;;;;;;13.46;64.19;95411.16;5074060;28;20433;-70
2022/10/26 06:45:58;;;;;;;11.25;4.97;;;;;;;14.14;62.02;95411.38;5055938;28;20494;-70
2022/10/26 06:48:24;;;;;;;8.15;4.70;;;;;;;14.44;60.88;95393.97;5072437;28;20032;-70
2022/10/26 06:50:51;;;;;;;9.85;4.80;;;;;;;14.85;59.69;95407.72;5055784;28;20024;-71
2022/10/26 06:53:32;;;;;;;9.07;4.75;;;;;;;14.62;60.53;95408.00;5072471;28;20029;-70
2022/10/26 06:55:58;;;;;;;10.25;4.38;;;;;;;14.77;59.98;95415.47;5073439;28;20107;-70
2022/10/26 06:58:26;;;;;;;10.27;4.55;;;;;;;14.93;59.63;95400.03;5072293;28;20110;-71
2022/10/26 07:00:53;;;;;;;8.73;4.80;;;;;;;15.35;58.86;95410.13;5072173;28;20031;-71
2022/10/26 07:03:19;;;;;;;14.65;6.65;;;;;;;15.89;57.07;95416.47;5055736;28;20067;-70
2022/10/26 07:05:44;;;;;;;11.15;4.60;;;;;;;16.13;56.76;95413.31;5072102;28;20056;-71
2022/10/26 07:08:10;;;;;;;9.95;5.32;;;;;;;16.42;55.87;95415.75;5055322;28;20091;-71
2022/10/26 07:10:37;;;;;;;14.13;5.68;;;;;;;17.20;54.00;95420.41;5073195;28;20089;-71
2022/10/26 07:13:06;;;;;;;10.50;4.90;;;;;;;17.82;52.33;95420.31;5073434;28;20028;-71
2022/10/26 07:15:32;;;;;;;8.95;4.88;;;;;;;18.78;50.19;95422.63;5071896;28;20028;-71
2022/10/26 07:17:58;;;;;;;12.45;4.95;;;;;;;19.25;48.99;95408.81;5071837;28;20123;-71
2022/10/26 07:20:24;;;;;;;10.00;5.10;;;;;;;19.87;47.36;95408.22;5073028;28;20052;-71
2022/10/26 07:22:56;;;;;;;11.38;5.45;;;;;;;20.89;44.19;95406.38;5071890;28;20465;-71
2022/10/26 07:25:22;;;;;;;10.00;5.78;;;;;;;21.38;42.65;95411.28;5071704;28;20040;-72
2022/10/26 07:27:47;;;;;;;12.70;5.10;;;;;;;22.14;40.95;95403.19;5071747;28;20040;-71
2022/10/26 07:30:13;;;;;;;10.00;6.03;;;;;;;22.96;39.46;95405.59;5072857;28;20039;-71
2022/10/26 07:32:38;;;;;;;10.00;5.88;;;;;;;23.80;37.33;95410.16;5054692;28;20114;-71
2022/10/26 07:35:04;;;;;;;10.20;4.80;;;;;;;24.26;37.20;95395.50;5071551;28;20059;-71
2022/10/26 07:37:30;;;;;;;11.02;4.80;;;;;;;24.77;36.54;95400.41;5072835;28;20116;-72
2022/10/26 07:39:55;;;;;;;9.25;5.75;;;;;;;24.80;35.65;95401.84;5071515;28;20028;-72
2022/10/26 07:42:21;;;;;;;9.80;5.75;;;;;;;25.28;34.25;95397.22;5071486;28;20028;-72
2022/10/26 07:44:46;;;;;;;9.27;5.55;;;;;;;25.47;34.13;95390.25;5054649;28;20239;-73
2022/10/26 07:47:12;;;;;;;13.27;5.68;;;;;;;26.15;32.69;95397.13;5070676;28;20202;-72
2022/10/26 07:49:37;;;;;;;10.13;5.45;;;;;;;26.22;32.88;95392.59;5072484;28;20157;-72
2022/10/26 07:52:03;;;;;;;11.88;6.32;;;;;;;26.27;32.34;95388.28;5072257;28;20497;-72
2022/10/26 07:54:28;;;;;;;9.63;5.53;;;;;;;25.62;33.38;95388.19;5071176;28;20413;-71
2022/10/26 07:56:53;;;;;;;12.73;6.43;;;;;;;24.85;35.31;95394.91;5071033;28;20040;-72
2022/10/26 07:59:19;;;;;;;11.75;5.85;;;;;;;24.28;36.06;95396.13;5054305;28;20028;-71
2022/10/26 08:01:44;;;;;;;11.10;5.90;;;;;;;23.68;37.00;95381.69;5054437;28;20086;-71
2022/10/26 08:04:10;;;;;;;12.02;5.57;;;;;;;23.26;37.36;95378.94;5072167;28;20056;-71
2022/10/26 08:06:35;;;;;;;8.13;5.57;;;;;;;23.00;38.69;95394.63;5054154;28;20029;-71
2022/10/26 08:09:01;;;;;;;5.85;4.10;;;;;;;22.55;39.04;95389.47;5070770;28;20502;-71
2022/10/26 08:11:26;;;;;;;7.53;4.13;;;;;;;22.55;39.23;95399.25;5071941;28;20024;-71
2022/10/26 08:13:52;;;;;;;7.57;3.90;;;;;;;22.30;39.49;95389.78;5071871;28;20547;-71
2022/10/26 08:16:18;;;;;;;9.30;4.22;;;;;;;22.11;40.10;95398.28;5053954;28;20020;-71
2022/10/26 08:18:43;;;;;;;8.13;4.35;;;;;;;21.96;40.41;95385.06;5053893;28;20033;-71
2022/10/26 08:21:10;;;;;;;8.32;4.10;;;;;;;21.88;40.59;95387.81;5053891;28;20028;-71
2022/10/26 08:23:36;;;;;;;8.45;4.70;;;;;;;21.53;41.10;95391.97;5070598;28;20456;-71
2022/10/26 08:26:02;;;;;;;6.32;4.10;;;;;;;21.57;41.77;95395.91;5070564;28;20028;-71
2022/10/26 08:28:27;;;;;;;6.15;3.80;;;;;;;21.45;40.71;95382.31;5054020;28;20116;-70
2022/10/26 08:30:53;;;;;;;8.02;3.42;;;;;;;21.42;40.96;95388.81;5070291;28;20482;-71
2022/10/26 08:33:19;;;;;;;5.78;3.35;;;;;;;20.94;42.06;95390.00;5053803;28;20514;-71
2022/10/26 08:35:44;;;;;;;8.82;3.28;;;;;;;20.66;42.37;95385.25;5053748;28;20025;-71
2022/10/26 08:38:09;;;;;;;7.57;3.42;;;;;;;20.83;41.82;95383.31;5071765;28;20474;-71
2022/10/26 08:40:36;;;;;;;9.00;3.70;;;;;;;20.76;42.51;95382.41;5070250;28;20028;-71
2022/10/26 08:43:34;;;;;;;10.65;4.00;;;;;;;20.63;42.64;95371.59;5053499;28;20029;-72
2022/10/26 08:46:08;;;;;;;9.27;4.07;;;;;;;20.68;43.10;95375.34;5062996;28;20536;-71
2022/10/26 08:48:52;;;;;;;8.48;4.30;;;;;;;20.67;43.31;95388.72;5053853;28;20020;-71
2022/10/26 08:51:29;;;;;;;12.05;4.40;;;;;;;20.39;43.48;95389.16;5054968;28;20094;-71
2022/10/26 08:53:58;;;;;;;7.80;4.07;;;;;;;20.37;43.52;95391.19;5038133;28;20559;-71
2022/10/26 08:56:25;;;;;;;8.32;3.45;;;;;;;20.51;42.33;95390.44;5069930;28;20047;-71
2022/10/26 08:59:01;;;;;;;4.97;3.22;;;;;;;20.58;42.15;95392.41;5069421;28;20482;-71
2022/10/26 09:01:30;;;;;;;6.97;3.30;;;;;;;20.43;41.68;95387.84;5069850;28;20032;-71
2022/10/26 09:03:55;;;;;;;9.98;3.05;;;;;;;20.02;42.79;95393.31;5069779;28;20028;-71
2022/10/26 09:06:29;;;;;;;7.75;2.80;;;;;;;19.74;42.80;95397.38;5053198;28;20036;-71
2022/10/26 09:09:02;;;;;;;6.10;3.03;;;;;;;19.71;42.68;95392.44;5070925;28;20048;-71
2022/10/26 09:11:46;;;;;;;5.93;2.88;;;;;;;19.83;43.04;95391.09;5069794;28;20025;-71
2022/10/26 09:14:14;;;;;;;9.50;3.22;;;;;;;20.17;42.51;95388.16;5070971;28;20157;-71
2022/10/26 09:16:40;;;;;;;5.28;2.70;;;;;;;20.27;42.60;95388.75;5070916;28;20060;-71
2022/10/26 09:19:14;;;;;;;7.63;3.20;;;;;;;20.30;42.64;95393.66;5070818;28;20083;-71
2022/10/26 09:21:44;;;;;;;5.78;2.50;;;;;;;20.41;41.44;95389.00;5071016;28;20066;-71
2022/10/26 09:24:13;;;;;;;6.68;2.58;;;;;;;20.56;40.89;95389.97;5053141;28;20119;-71
2022/10/26 09:26:41;;;;;;;4.05;2.10;;;;;;;20.64;40.19;95383.78;5069590;28;20486;-71
2022/10/26 09:29:11;;;;;;;5.70;2.42;;;;;;;20.70;40.21;95380.47;5070727;28;20407;-71
2022/10/26 09:31:44;;;;;;;6.00;2.35;;;;;;;20.56;40.27;95370.63;5052939;28;20044;-71
2022/10/26 09:34:36;;;;;;;6.20;2.53;;;;;;;20.66;40.45;95381.78;5069825;28;20029;-71
2022/10/26 09:37:07;;;;;;;5.15;2.00;;;;;;;20.70;39.89;95383.09;5069157;28;20582;-71
2022/10/26 09:39:35;;;;;;;6.43;2.55;;;;;;;20.66;38.96;95387.06;5053633;28;20031;-71
2022/10/26 09:42:23;;;;;;;5.55;2.50;;;;;;;20.62;39.57;95388.44;5069505;28;20161;-71
2022/10/26 09:45:00;;;;;;;5.95;2.35;;;;;;;20.64;39.82;95381.13;5069486;28;20186;-71
2022/10/26 09:47:39;;;;;;;6.20;2.67;;;;;;;20.71;40.33;95382.91;5069360;28;20421;-71
2022/10/26 09:50:29;;;;;;;5.25;2.83;;;;;;;20.79;39.74;95375.94;5052687;28;20016;-71
2022/10/26 09:52:55;;;;;;;6.57;2.63;;;;;;;20.74;39.34;95368.53;5052732;28;20490;-71
2022/10/26 09:55:21;;;;;;;5.90;2.28;;;;;;;20.70;39.27;95367.25;5052621;28;20032;-71
2022/10/26 09:57:49;;;;;;;4.03;2.67;;;;;;;20.83;39.57;95377.22;5069371;28;20073;-71
2022/10/26 10:00:15;;;;;;;5.53;2.28;;;;;;;20.82;38.68;95352.63;5069248;28;20128;-71
2022/10/26 10:02:45;;;;;;;6.65;2.20;;;;;;;20.79;39.09;95360.09;5052740;28;20028;-71
2022/10/26 10:05:24;;;;;;;6.03;2.40;;;;;;;20.86;38.74;95372.41;5070443;28;20070;-71
2022/10/26 10:07:50;;;;;;;5.15;2.42;;;;;;;20.87;38.64;95350.28;5070561;28;20108;-71
2022/10/26 10:10:16;;;;;;;5.72;2.30;;;;;;;20.89;38.60;95358.84;5052735;28;20166;-71
2022/10/26 10:12:42;;;;;;;4.45;2.47;;;;;;;20.79;39.26;95349.53;5073095;28;20033;-71
2022/10/26 10:15:17;;;;;;;5.65;2.40;;;;;;;20.89;39.46;95353.56;5056423;28;20040;-71
2022/10/26 10:17:54;;;;;;;4.22;2.50;;;;;;;20.89;39.37;95356.19;5074358;28;20037;-71
2022/10/26 10:20:22;;;;;;;6.28;2.40;;;;;;;20.93;39.01;95351.41;5073067;28;20470;-71
2022/10/26 10:22:57;;;;;;;5.80;2.00;;;;;;;20.94;37.98;95345.13;5073911;28;20163;-71
2022/10/26 10:25:37;;;;;;;8.15;2.72;;;;;;;20.89;38.49;95340.34;5072821;28;20037;-71
2022/10/26 10:28:19;;;;;;;7.93;2.40;;;;;;;21.09;38.43;95345.13;5072918;28;20051;-70
2022/10/26 10:30:51;;;;;;;5.38;2.33;;;;;;;21.13;38.96;95338.50;5039694;28;20407;-71
2022/10/26 10:33:16;;;;;;;5.35;2.47;;;;;;;21.12;38.33;95342.16;5056106;28;20482;-71
2022/10/26 10:35:51;;;;;;;7.38;2.40;;;;;;;21.05;38.77;95333.31;5055854;28;20032;-71
2022/10/26 10:38:20;;;;;;;6.38;2.30;;;;;;;21.17;38.71;95339.78;5055757;28;20032;-71
2022/10/26 10:41:18;;;;;;;5.05;2.58;;;;;;;21.19;38.63;95335.16;5055977;28;20112;-71
2022/10/26 10:44:04;;;;;;;7.28;2.42;;;;;;;21.17;38.97;95340.63;5073381;28;20047;-71
2022/10/26 10:46:29;;;;;;;5.72;2.47;;;;;;;21.25;38.63;95333.59;5073382;28;20067;-71
2022/10/26 10:49:02;;;;;;;7.07;2.70;;;;;;;21.15;37.87;95318.03;5073500;28;20032;-71
2022/10/26 10:51:27;;;;;;;5.38;2.25;;;;;;;21.15;38.00;95326.78;5056001;28;20029;-71
2022/10/26 10:53:54;;;;;;;5.13;2.28;;;;;;;21.26;38.22;95325.50;5055843;28;20024;-71
2022/10/26 10:56:25;;;;;;;5.97;2.20;;;;;;;21.37;38.55;95317.16;5039166;28;20567;-71
2022/10/26 10:58:58;;;;;;;5.55;2.20;;;;;;;21.37;37.95;95319.81;5073549;28;20056;-71
2022/10/26 11:01:26;;;;;;;4.85;2.28;;;;;;;21.43;38.35;95326.19;5055419;28;20028;-71
2022/10/26 11:04:04;;;;;;;5.32;2.00;;;;;;;21.34;37.98;95324.59;5072137;28;20469;-71
2022/10/26 11:06:29;;;;;;;3.88;2.00;;;;;;;21.31;37.25;95312.59;5073271;28;20528;-71
2022/10/26 11:09:05;;;;;;;6.60;2.33;;;;;;;21.33;37.78;95321.13;5073418;28;20056;-71
2022/10/26 11:11:34;;;;;;;7.30;2.28;;;;;;;21.33;37.76;95300.00;5073289;28;20067;-71
2022/10/26 11:14:13;;;;;;;5.65;2.17;;;;;;;21.12;37.28;95291.97;5071940;28;20029;-71
2022/10/26 11:16:43;;;;;;;4.45;2.20;;;;;;;20.91;37.86;95301.41;5071916;28;20033;-71
2022/10/26 11:19:14;;;;;;;4.10;2.00;;;;;;;21.12;37.99;95302.53;5055086;28;20580;-71
2022/10/26 11:21:40;;;;;;;5.35;2.22;;;;;;;21.28;37.59;95305.00;5072863;28;20060;-71
2022/10/26 11:24:44;;;;;;;7.18;2.10;;;;;;;21.33;37.96;95305.28;5071033;28;20513;-71
2022/10/26 11:27:21;;;;;;;4.47;2.08;;;;;;;21.49;38.25;95304.31;5071613;28;20045;-71
2022/10/26 11:29:53;;;;;;;4.20;2.20;;;;;;;21.44;38.38;95303.22;5055330;28;20051;-71
2022/10/26 11:32:21;;;;;;;9.20;2.40;;;;;;;21.59;38.25;95296.94;5071973;28;20039;-71
2022/10/26 11:35:08;;;;;;;4.78;2.33;;;;;;;21.61;37.77;95300.19;5071626;28;20033;-71
2022/10/26 11:37:36;;;;;;;4.05;2.15;;;;;;;21.67;38.04;95296.00;5071545;28;20036;-71
2022/10/26 11:40:13;;;;;;;6.78;2.45;;;;;;;21.72;38.24;95301.56;5071453;28;20486;-71
2022/10/26 11:43:13;;;;;;;7.32;2.80;;;;;;;21.81;37.63;95294.34;5071597;28;20028;-71